sensor_id;sensor_type;location;lat;lon;timestamp;P1;durP1;ratioP1;P2;durP2;ratioP2
13753;SDS011;6948;51.216;6.778;2023-06-24T00:02:10;12.43;;;9.88;;
13753;SDS011;6948;51.216;6.778;2023-06-24T00:04:36;12.43;;;10.13;;
13753;SDS011;6948;51.216;6.778;2023-06-24T00:07:02;12.27;;;9.83;;
13753;SDS011;6948;51.216;6.778;2023-06-24T00:09:28;11.73;;;10.50;;
13753;SDS011;6948;51.216;6.778;2023-06-24T00:11:56;13.80;;;9.87;;
13753;SDS011;6948;51.216;6.778;2023-06-24T00:14:23;12.83;;;9.80;;
13753;SDS011;6948;51.216;6.778;2023-06-24T00:16:51;12.13;;;10.87;;
13753;SDS011;6948;51.216;6.778;2023-06-24T00:19:19;13.17;;;10.80;;
13753;SDS011;6948;51.216;6.778;2023-06-24T00:21:46;11.67;;;10.33;;
13753;SDS011;6948;51.216;6.778;2023-06-24T00:24:12;12.70;;;10.40;;
13753;SDS011;6948;51.216;6.778;2023-06-24T00:26:38;10.93;;;9.57;;
13753;SDS011;6948;51.216;6.778;2023-06-24T00:29:04;11.00;;;9.20;;
13753;SDS011;6948;51.216;6.778;2023-06-24T00:31:30;12.30;;;9.17;;
13753;SDS011;6948;51.216;6.778;2023-06-24T00:33:56;12.83;;;9.27;;
13753;SDS011;6948;51.216;6.778;2023-06-24T00:36:22;11.87;;;9.47;;
13753;SDS011;6948;51.216;6.778;2023-06-24T00:38:48;12.50;;;9.00;;
13753;SDS011;6948;51.216;6.778;2023-06-24T00:41:15;9.87;;;8.83;;
13753;SDS011;6948;51.216;6.778;2023-06-24T00:43:43;12.03;;;9.37;;
13753;SDS011;6948;51.216;6.778;2023-06-24T00:46:09;11.40;;;9.03;;
13753;SDS011;6948;51.216;6.778;2023-06-24T00:48:35;10.67;;;8.60;;
13753;SDS011;6948;51.216;6.778;2023-06-24T00:51:01;10.27;;;8.90;;
13753;SDS011;6948;51.216;6.778;2023-06-24T00:53:27;10.70;;;9.60;;
13753;SDS011;6948;51.216;6.778;2023-06-24T00:55:54;12.63;;;9.27;;
13753;SDS011;6948;51.216;6.778;2023-06-24T00:58:21;12.37;;;8.93;;
13753;SDS011;6948;51.216;6.778;2023-06-24T01:00:47;9.43;;;8.37;;
13753;SDS011;6948;51.216;6.778;2023-06-24T01:03:22;10.63;;;8.57;;
13753;SDS011;6948;51.216;6.778;2023-06-24T01:05:50;9.87;;;8.33;;
13753;SDS011;6948;51.216;6.778;2023-06-24T01:08:16;9.87;;;8.33;;
13753;SDS011;6948;51.216;6.778;2023-06-24T01:10:44;10.37;;;8.80;;
13753;SDS011;6948;51.216;6.778;2023-06-24T01:13:10;13.10;;;9.83;;
13753;SDS011;6948;51.216;6.778;2023-06-24T01:15:36;11.13;;;10.03;;
13753;SDS011;6948;51.216;6.778;2023-06-24T01:18:06;8.70;;;7.90;;
13753;SDS011;6948;51.216;6.778;2023-06-24T01:20:36;9.83;;;8.53;;
13753;SDS011;6948;51.216;6.778;2023-06-24T01:31:21;8.70;;;7.80;;
13753;SDS011;6948;51.216;6.778;2023-06-24T01:33:52;8.93;;;7.73;;
13753;SDS011;6948;51.216;6.778;2023-06-24T01:36:18;9.17;;;7.97;;
13753;SDS011;6948;51.216;6.778;2023-06-24T01:38:47;9.60;;;7.50;;
13753;SDS011;6948;51.216;6.778;2023-06-24T01:41:16;9.57;;;7.30;;
13753;SDS011;6948;51.216;6.778;2023-06-24T01:43:44;9.17;;;7.23;;
13753;SDS011;6948;51.216;6.778;2023-06-24T01:46:11;8.43;;;7.63;;
13753;SDS011;6948;51.216;6.778;2023-06-24T01:48:38;8.90;;;7.83;;
13753;SDS011;6948;51.216;6.778;2023-06-24T01:51:08;11.03;;;7.03;;
13753;SDS011;6948;51.216;6.778;2023-06-24T01:53:36;8.53;;;7.40;;
13753;SDS011;6948;51.216;6.778;2023-06-24T01:56:05;8.70;;;7.53;;
13753;SDS011;6948;51.216;6.778;2023-06-24T01:58:33;7.90;;;7.00;;
13753;SDS011;6948;51.216;6.778;2023-06-24T02:01:00;9.30;;;7.67;;
13753;SDS011;6948;51.216;6.778;2023-06-24T02:03:27;8.60;;;7.77;;
13753;SDS011;6948;51.216;6.778;2023-06-24T02:05:54;7.90;;;7.10;;
13753;SDS011;6948;51.216;6.778;2023-06-24T02:08:20;8.07;;;7.17;;
13753;SDS011;6948;51.216;6.778;2023-06-24T02:10:47;7.87;;;6.80;;
13753;SDS011;6948;51.216;6.778;2023-06-24T02:13:14;7.90;;;7.20;;
13753;SDS011;6948;51.216;6.778;2023-06-24T02:15:41;7.63;;;6.93;;
13753;SDS011;6948;51.216;6.778;2023-06-24T02:18:08;7.90;;;7.17;;
13753;SDS011;6948;51.216;6.778;2023-06-24T02:20:34;7.63;;;6.93;;
13753;SDS011;6948;51.216;6.778;2023-06-24T02:23:01;7.77;;;6.87;;
13753;SDS011;6948;51.216;6.778;2023-06-24T02:25:29;9.63;;;7.13;;
13753;SDS011;6948;51.216;6.778;2023-06-24T02:27:56;8.83;;;7.47;;
13753;SDS011;6948;51.216;6.778;2023-06-24T02:30:22;9.90;;;8.90;;
13753;SDS011;6948;51.216;6.778;2023-06-24T02:32:49;11.57;;;8.30;;
13753;SDS011;6948;51.216;6.778;2023-06-24T02:35:15;9.43;;;7.40;;
13753;SDS011;6948;51.216;6.778;2023-06-24T02:37:41;8.50;;;7.50;;
13753;SDS011;6948;51.216;6.778;2023-06-24T02:40:07;8.80;;;7.50;;
13753;SDS011;6948;51.216;6.778;2023-06-24T02:42:33;10.73;;;7.53;;
13753;SDS011;6948;51.216;6.778;2023-06-24T02:44:59;11.47;;;7.10;;
13753;SDS011;6948;51.216;6.778;2023-06-24T02:47:26;8.03;;;6.93;;
13753;SDS011;6948;51.216;6.778;2023-06-24T02:49:52;8.07;;;7.27;;
13753;SDS011;6948;51.216;6.778;2023-06-24T02:52:19;10.33;;;7.70;;
13753;SDS011;6948;51.216;6.778;2023-06-24T02:54:46;8.57;;;7.33;;
13753;SDS011;6948;51.216;6.778;2023-06-24T02:57:12;9.00;;;7.17;;
13753;SDS011;6948;51.216;6.778;2023-06-24T02:59:40;8.37;;;7.37;;
13753;SDS011;6948;51.216;6.778;2023-06-24T03:02:06;8.53;;;7.63;;
13753;SDS011;6948;51.216;6.778;2023-06-24T03:04:32;8.13;;;7.33;;
13753;SDS011;6948;51.216;6.778;2023-06-24T03:06:59;9.40;;;7.43;;
13753;SDS011;6948;51.216;6.778;2023-06-24T03:09:26;8.87;;;7.23;;
13753;SDS011;6948;51.216;6.778;2023-06-24T03:11:53;8.03;;;7.23;;
13753;SDS011;6948;51.216;6.778;2023-06-24T03:14:19;9.00;;;7.57;;
13753;SDS011;6948;51.216;6.778;2023-06-24T03:16:44;7.63;;;6.40;;
13753;SDS011;6948;51.216;6.778;2023-06-24T03:19:10;8.20;;;7.40;;
13753;SDS011;6948;51.216;6.778;2023-06-24T03:21:36;9.90;;;6.97;;
13753;SDS011;6948;51.216;6.778;2023-06-24T03:24:03;8.30;;;7.50;;
13753;SDS011;6948;51.216;6.778;2023-06-24T03:26:33;8.70;;;7.10;;
13753;SDS011;6948;51.216;6.778;2023-06-24T03:29:00;8.10;;;7.30;;
13753;SDS011;6948;51.216;6.778;2023-06-24T03:31:26;11.20;;;7.03;;
13753;SDS011;6948;51.216;6.778;2023-06-24T03:33:52;8.07;;;6.83;;
13753;SDS011;6948;51.216;6.778;2023-06-24T03:36:18;8.13;;;7.03;;
13753;SDS011;6948;51.216;6.778;2023-06-24T03:38:45;8.33;;;7.40;;
13753;SDS011;6948;51.216;6.778;2023-06-24T03:41:11;7.57;;;6.87;;
13753;SDS011;6948;51.216;6.778;2023-06-24T03:43:37;9.70;;;7.30;;
13753;SDS011;6948;51.216;6.778;2023-06-24T03:46:03;8.03;;;7.17;;
13753;SDS011;6948;51.216;6.778;2023-06-24T03:48:29;8.87;;;7.20;;
13753;SDS011;6948;51.216;6.778;2023-06-24T03:50:55;8.53;;;7.70;;
13753;SDS011;6948;51.216;6.778;2023-06-24T03:53:21;7.67;;;6.93;;
13753;SDS011;6948;51.216;6.778;2023-06-24T03:55:47;9.03;;;7.57;;
13753;SDS011;6948;51.216;6.778;2023-06-24T03:58:13;9.93;;;7.50;;
13753;SDS011;6948;51.216;6.778;2023-06-24T04:00:42;8.37;;;7.40;;
13753;SDS011;6948;51.216;6.778;2023-06-24T04:03:09;10.97;;;8.00;;
13753;SDS011;6948;51.216;6.778;2023-06-24T04:05:35;8.70;;;7.73;;
13753;SDS011;6948;51.216;6.778;2023-06-24T04:08:01;9.53;;;7.97;;
13753;SDS011;6948;51.216;6.778;2023-06-24T04:10:31;10.00;;;8.27;;
13753;SDS011;6948;51.216;6.778;2023-06-24T04:12:57;8.50;;;7.50;;
13753;SDS011;6948;51.216;6.778;2023-06-24T04:15:23;10.20;;;8.30;;
13753;SDS011;6948;51.216;6.778;2023-06-24T04:17:49;9.17;;;8.10;;
13753;SDS011;6948;51.216;6.778;2023-06-24T04:20:15;9.83;;;8.17;;
13753;SDS011;6948;51.216;6.778;2023-06-24T04:22:41;11.20;;;9.13;;
13753;SDS011;6948;51.216;6.778;2023-06-24T04:25:07;10.13;;;9.23;;
13753;SDS011;6948;51.216;6.778;2023-06-24T04:27:34;9.73;;;8.70;;
13753;SDS011;6948;51.216;6.778;2023-06-24T04:30:00;13.23;;;9.63;;
13753;SDS011;6948;51.216;6.778;2023-06-24T04:32:26;11.77;;;9.70;;
13753;SDS011;6948;51.216;6.778;2023-06-24T04:34:52;10.30;;;9.13;;
13753;SDS011;6948;51.216;6.778;2023-06-24T04:37:19;10.43;;;9.10;;
13753;SDS011;6948;51.216;6.778;2023-06-24T04:39:46;12.87;;;9.37;;
13753;SDS011;6948;51.216;6.778;2023-06-24T04:42:12;10.10;;;8.97;;
13753;SDS011;6948;51.216;6.778;2023-06-24T04:44:39;10.80;;;9.40;;
13753;SDS011;6948;51.216;6.778;2023-06-24T04:47:05;11.53;;;9.07;;
13753;SDS011;6948;51.216;6.778;2023-06-24T04:49:31;10.63;;;9.00;;
13753;SDS011;6948;51.216;6.778;2023-06-24T04:52:01;14.23;;;9.97;;
13753;SDS011;6948;51.216;6.778;2023-06-24T04:54:27;11.80;;;9.83;;
13753;SDS011;6948;51.216;6.778;2023-06-24T04:56:53;10.93;;;9.27;;
13753;SDS011;6948;51.216;6.778;2023-06-24T04:59:21;10.67;;;9.57;;
13753;SDS011;6948;51.216;6.778;2023-06-24T05:01:47;10.20;;;9.20;;
13753;SDS011;6948;51.216;6.778;2023-06-24T05:04:13;11.50;;;9.30;;
13753;SDS011;6948;51.216;6.778;2023-06-24T05:06:39;10.97;;;9.37;;
13753;SDS011;6948;51.216;6.778;2023-06-24T05:09:05;11.87;;;9.97;;
13753;SDS011;6948;51.216;6.778;2023-06-24T05:11:31;11.20;;;9.60;;
13753;SDS011;6948;51.216;6.778;2023-06-24T05:13:57;11.87;;;9.57;;
13753;SDS011;6948;51.216;6.778;2023-06-24T05:16:23;11.43;;;9.23;;
13753;SDS011;6948;51.216;6.778;2023-06-24T05:18:49;10.73;;;9.40;;
13753;SDS011;6948;51.216;6.778;2023-06-24T05:21:16;10.60;;;9.50;;
13753;SDS011;6948;51.216;6.778;2023-06-24T05:23:42;10.63;;;9.50;;
13753;SDS011;6948;51.216;6.778;2023-06-24T05:26:08;10.23;;;8.97;;
13753;SDS011;6948;51.216;6.778;2023-06-24T05:28:34;11.93;;;9.23;;
13753;SDS011;6948;51.216;6.778;2023-06-24T05:31:00;10.77;;;9.67;;
13753;SDS011;6948;51.216;6.778;2023-06-24T05:33:26;11.00;;;9.90;;
13753;SDS011;6948;51.216;6.778;2023-06-24T05:35:52;10.63;;;9.40;;
13753;SDS011;6948;51.216;6.778;2023-06-24T05:38:18;13.73;;;9.70;;
13753;SDS011;6948;51.216;6.778;2023-06-24T05:40:44;11.47;;;9.80;;
13753;SDS011;6948;51.216;6.778;2023-06-24T05:43:10;12.23;;;9.67;;
13753;SDS011;6948;51.216;6.778;2023-06-24T05:45:36;12.00;;;9.23;;
13753;SDS011;6948;51.216;6.778;2023-06-24T05:48:03;11.43;;;9.80;;
13753;SDS011;6948;51.216;6.778;2023-06-24T05:50:29;13.25;;;10.65;;
13753;SDS011;6948;51.216;6.778;2023-06-24T05:52:55;15.10;;;10.20;;
13753;SDS011;6948;51.216;6.778;2023-06-24T05:55:21;18.73;;;14.33;;
13753;SDS011;6948;51.216;6.778;2023-06-24T05:57:47;12.40;;;10.33;;
13753;SDS011;6948;51.216;6.778;2023-06-24T06:00:13;12.50;;;10.10;;
13753;SDS011;6948;51.216;6.778;2023-06-24T06:02:39;15.10;;;10.57;;
13753;SDS011;6948;51.216;6.778;2023-06-24T06:05:05;14.63;;;10.95;;
13753;SDS011;6948;51.216;6.778;2023-06-24T06:07:31;16.05;;;10.05;;
13753;SDS011;6948;51.216;6.778;2023-06-24T06:09:57;13.63;;;9.40;;
13753;SDS011;6948;51.216;6.778;2023-06-24T06:12:23;13.85;;;10.60;;
13753;SDS011;6948;51.216;6.778;2023-06-24T06:14:49;15.57;;;10.65;;
13753;SDS011;6948;51.216;6.778;2023-06-24T06:17:15;15.80;;;9.85;;
13753;SDS011;6948;51.216;6.778;2023-06-24T06:19:41;16.35;;;11.48;;
13753;SDS011;6948;51.216;6.778;2023-06-24T06:22:07;11.98;;;10.60;;
13753;SDS011;6948;51.216;6.778;2023-06-24T06:24:33;17.77;;;11.63;;
13753;SDS011;6948;51.216;6.778;2023-06-24T06:26:59;12.30;;;11.07;;
13753;SDS011;6948;51.216;6.778;2023-06-24T06:29:25;12.52;;;11.27;;
13753;SDS011;6948;51.216;6.778;2023-06-24T06:31:51;12.90;;;11.27;;
13753;SDS011;6948;51.216;6.778;2023-06-24T06:34:18;12.52;;;10.88;;
13753;SDS011;6948;51.216;6.778;2023-06-24T06:36:44;11.57;;;10.38;;
13753;SDS011;6948;51.216;6.778;2023-06-24T06:39:10;15.23;;;10.93;;
13753;SDS011;6948;51.216;6.778;2023-06-24T06:41:36;14.10;;;10.60;;
13753;SDS011;6948;51.216;6.778;2023-06-24T06:44:02;13.45;;;10.73;;
13753;SDS011;6948;51.216;6.778;2023-06-24T06:46:28;13.15;;;10.65;;
13753;SDS011;6948;51.216;6.778;2023-06-24T06:48:54;15.80;;;10.13;;
13753;SDS011;6948;51.216;6.778;2023-06-24T06:51:20;13.40;;;9.70;;
13753;SDS011;6948;51.216;6.778;2023-06-24T06:53:46;15.48;;;10.13;;
13753;SDS011;6948;51.216;6.778;2023-06-24T06:56:22;15.98;;;10.13;;
13753;SDS011;6948;51.216;6.778;2023-06-24T06:58:49;14.38;;;10.15;;
13753;SDS011;6948;51.216;6.778;2023-06-24T07:01:15;13.27;;;9.10;;
13753;SDS011;6948;51.216;6.778;2023-06-24T07:03:41;12.88;;;9.48;;
13753;SDS011;6948;51.216;6.778;2023-06-24T07:06:07;12.63;;;9.20;;
13753;SDS011;6948;51.216;6.778;2023-06-24T07:08:33;12.30;;;8.02;;
13753;SDS011;6948;51.216;6.778;2023-06-24T07:11:01;12.10;;;9.05;;
13753;SDS011;6948;51.216;6.778;2023-06-24T07:13:27;12.70;;;8.43;;
13753;SDS011;6948;51.216;6.778;2023-06-24T07:15:53;11.50;;;9.10;;
13753;SDS011;6948;51.216;6.778;2023-06-24T07:18:19;12.82;;;8.35;;
13753;SDS011;6948;51.216;6.778;2023-06-24T07:20:45;9.13;;;7.38;;
13753;SDS011;6948;51.216;6.778;2023-06-24T07:23:11;10.13;;;8.18;;
13753;SDS011;6948;51.216;6.778;2023-06-24T07:25:37;9.93;;;7.60;;
13753;SDS011;6948;51.216;6.778;2023-06-24T07:28:03;9.75;;;7.65;;
13753;SDS011;6948;51.216;6.778;2023-06-24T07:30:29;8.35;;;7.38;;
13753;SDS011;6948;51.216;6.778;2023-06-24T07:32:55;11.43;;;7.93;;
13753;SDS011;6948;51.216;6.778;2023-06-24T07:35:21;11.20;;;8.38;;
13753;SDS011;6948;51.216;6.778;2023-06-24T07:37:48;12.10;;;8.32;;
13753;SDS011;6948;51.216;6.778;2023-06-24T07:40:14;10.95;;;7.95;;
13753;SDS011;6948;51.216;6.778;2023-06-24T07:42:40;9.73;;;7.80;;
13753;SDS011;6948;51.216;6.778;2023-06-24T07:45:07;11.70;;;8.00;;
13753;SDS011;6948;51.216;6.778;2023-06-24T07:47:33;10.15;;;7.28;;
13753;SDS011;6948;51.216;6.778;2023-06-24T07:49:59;9.13;;;7.90;;
13753;SDS011;6948;51.216;6.778;2023-06-24T07:52:25;8.63;;;7.15;;
13753;SDS011;6948;51.216;6.778;2023-06-24T07:54:51;10.35;;;7.60;;
13753;SDS011;6948;51.216;6.778;2023-06-24T07:57:18;11.77;;;7.18;;
13753;SDS011;6948;51.216;6.778;2023-06-24T07:59:44;10.20;;;7.60;;
13753;SDS011;6948;51.216;6.778;2023-06-24T08:02:10;9.45;;;6.88;;
13753;SDS011;6948;51.216;6.778;2023-06-24T08:04:36;9.60;;;7.15;;
13753;SDS011;6948;51.216;6.778;2023-06-24T08:07:02;10.88;;;6.63;;
13753;SDS011;6948;51.216;6.778;2023-06-24T08:09:29;9.95;;;5.95;;
13753;SDS011;6948;51.216;6.778;2023-06-24T08:11:55;8.98;;;5.47;;
13753;SDS011;6948;51.216;6.778;2023-06-24T08:14:21;8.52;;;6.20;;
13753;SDS011;6948;51.216;6.778;2023-06-24T08:16:47;8.55;;;6.70;;
13753;SDS011;6948;51.216;6.778;2023-06-24T08:19:13;10.00;;;6.50;;
13753;SDS011;6948;51.216;6.778;2023-06-24T08:21:39;8.93;;;6.63;;
13753;SDS011;6948;51.216;6.778;2023-06-24T08:24:06;10.25;;;6.93;;
13753;SDS011;6948;51.216;6.778;2023-06-24T08:26:32;7.63;;;6.40;;
13753;SDS011;6948;51.216;6.778;2023-06-24T08:28:58;8.05;;;6.65;;
13753;SDS011;6948;51.216;6.778;2023-06-24T08:31:24;8.65;;;6.35;;
13753;SDS011;6948;51.216;6.778;2023-06-24T08:33:52;9.27;;;7.40;;
13753;SDS011;6948;51.216;6.778;2023-06-24T08:36:21;12.20;;;8.75;;
13753;SDS011;6948;51.216;6.778;2023-06-24T08:38:47;13.30;;;8.90;;
13753;SDS011;6948;51.216;6.778;2023-06-24T08:41:13;10.77;;;8.82;;
13753;SDS011;6948;51.216;6.778;2023-06-24T08:43:39;11.88;;;8.63;;
13753;SDS011;6948;51.216;6.778;2023-06-24T08:46:05;11.82;;;9.00;;
13753;SDS011;6948;51.216;6.778;2023-06-24T08:48:31;9.05;;;8.10;;
13753;SDS011;6948;51.216;6.778;2023-06-24T08:51:04;10.98;;;7.95;;
13753;SDS011;6948;51.216;6.778;2023-06-24T08:53:33;9.55;;;7.63;;
13753;SDS011;6948;51.216;6.778;2023-06-24T08:56:00;11.60;;;7.90;;
13753;SDS011;6948;51.216;6.778;2023-06-24T08:58:26;8.73;;;7.82;;
13753;SDS011;6948;51.216;6.778;2023-06-24T09:00:52;8.57;;;7.60;;
13753;SDS011;6948;51.216;6.778;2023-06-24T09:03:18;13.38;;;8.27;;
13753;SDS011;6948;51.216;6.778;2023-06-24T09:05:44;9.23;;;7.97;;
13753;SDS011;6948;51.216;6.778;2023-06-24T09:08:10;10.05;;;7.38;;
13753;SDS011;6948;51.216;6.778;2023-06-24T09:10:37;12.43;;;7.95;;
13753;SDS011;6948;51.216;6.778;2023-06-24T09:13:04;15.48;;;8.48;;
13753;SDS011;6948;51.216;6.778;2023-06-24T09:15:31;13.98;;;7.47;;
13753;SDS011;6948;51.216;6.778;2023-06-24T09:17:57;12.07;;;7.47;;
13753;SDS011;6948;51.216;6.778;2023-06-24T09:20:25;9.88;;;6.32;;
13753;SDS011;6948;51.216;6.778;2023-06-24T09:22:51;9.40;;;5.47;;
13753;SDS011;6948;51.216;6.778;2023-06-24T09:25:17;10.15;;;5.93;;
13753;SDS011;6948;51.216;6.778;2023-06-24T09:27:47;7.93;;;5.32;;
13753;SDS011;6948;51.216;6.778;2023-06-24T09:30:22;6.75;;;5.45;;
13753;SDS011;6948;51.216;6.778;2023-06-24T09:32:48;6.70;;;5.60;;
13753;SDS011;6948;51.216;6.778;2023-06-24T09:35:17;8.30;;;5.38;;
13753;SDS011;6948;51.216;6.778;2023-06-24T09:37:48;7.65;;;5.57;;
13753;SDS011;6948;51.216;6.778;2023-06-24T09:40:15;10.27;;;5.63;;
13753;SDS011;6948;51.216;6.778;2023-06-24T09:42:49;7.38;;;5.68;;
13753;SDS011;6948;51.216;6.778;2023-06-24T09:45:18;9.85;;;5.45;;
13753;SDS011;6948;51.216;6.778;2023-06-24T09:47:44;9.93;;;5.57;;
13753;SDS011;6948;51.216;6.778;2023-06-24T09:50:11;8.70;;;5.68;;
13753;SDS011;6948;51.216;6.778;2023-06-24T09:52:37;6.95;;;5.68;;
13753;SDS011;6948;51.216;6.778;2023-06-24T09:55:03;7.50;;;5.53;;
13753;SDS011;6948;51.216;6.778;2023-06-24T09:57:29;8.75;;;5.78;;
13753;SDS011;6948;51.216;6.778;2023-06-24T09:59:57;8.50;;;6.22;;
13753;SDS011;6948;51.216;6.778;2023-06-24T10:02:23;8.70;;;5.93;;
13753;SDS011;6948;51.216;6.778;2023-06-24T10:04:50;8.85;;;6.57;;
13753;SDS011;6948;51.216;6.778;2023-06-24T10:07:17;9.90;;;6.07;;
13753;SDS011;6948;51.216;6.778;2023-06-24T10:09:43;7.95;;;6.10;;
13753;SDS011;6948;51.216;6.778;2023-06-24T10:12:10;8.23;;;5.72;;
13753;SDS011;6948;51.216;6.778;2023-06-24T10:14:36;6.30;;;5.25;;
13753;SDS011;6948;51.216;6.778;2023-06-24T10:17:02;7.22;;;5.60;;
13753;SDS011;6948;51.216;6.778;2023-06-24T10:19:29;10.23;;;6.20;;
13753;SDS011;6948;51.216;6.778;2023-06-24T10:21:58;7.97;;;6.65;;
13753;SDS011;6948;51.216;6.778;2023-06-24T10:24:28;6.75;;;5.22;;
13753;SDS011;6948;51.216;6.778;2023-06-24T10:26:55;7.80;;;5.40;;
13753;SDS011;6948;51.216;6.778;2023-06-24T10:29:31;8.07;;;5.43;;
13753;SDS011;6948;51.216;6.778;2023-06-24T10:31:57;8.40;;;5.10;;
13753;SDS011;6948;51.216;6.778;2023-06-24T10:34:28;7.65;;;5.45;;
13753;SDS011;6948;51.216;6.778;2023-06-24T10:39:46;15.70;;;7.05;;
13753;SDS011;6948;51.216;6.778;2023-06-24T10:47:38;6.50;;;4.53;;
13753;SDS011;6948;51.216;6.778;2023-06-24T10:50:05;6.90;;;4.65;;
13753;SDS011;6948;51.216;6.778;2023-06-24T10:52:32;8.80;;;4.22;;
13753;SDS011;6948;51.216;6.778;2023-06-24T10:54:58;6.70;;;4.65;;
13753;SDS011;6948;51.216;6.778;2023-06-24T10:57:25;6.30;;;4.88;;
13753;SDS011;6948;51.216;6.778;2023-06-24T10:59:52;9.00;;;3.90;;
13753;SDS011;6948;51.216;6.778;2023-06-24T11:02:19;6.97;;;4.13;;
13753;SDS011;6948;51.216;6.778;2023-06-24T11:04:47;5.93;;;4.18;;
13753;SDS011;6948;51.216;6.778;2023-06-24T11:07:13;6.18;;;4.25;;
13753;SDS011;6948;51.216;6.778;2023-06-24T11:09:40;5.55;;;3.70;;
13753;SDS011;6948;51.216;6.778;2023-06-24T11:12:09;6.22;;;4.18;;
13753;SDS011;6948;51.216;6.778;2023-06-24T11:14:35;6.82;;;4.00;;
13753;SDS011;6948;51.216;6.778;2023-06-24T11:17:02;16.92;;;6.70;;
13753;SDS011;6948;51.216;6.778;2023-06-24T11:19:29;10.80;;;4.82;;
13753;SDS011;6948;51.216;6.778;2023-06-24T11:21:58;6.75;;;4.70;;
13753;SDS011;6948;51.216;6.778;2023-06-24T11:24:25;9.65;;;4.82;;
13753;SDS011;6948;51.216;6.778;2023-06-24T11:26:51;9.93;;;4.90;;
13753;SDS011;6948;51.216;6.778;2023-06-24T11:29:17;5.75;;;4.03;;
13753;SDS011;6948;51.216;6.778;2023-06-24T11:31:44;4.13;;;3.60;;
13753;SDS011;6948;51.216;6.778;2023-06-24T11:34:10;5.22;;;4.20;;
13753;SDS011;6948;51.216;6.778;2023-06-24T11:36:37;10.73;;;5.93;;
13753;SDS011;6948;51.216;6.778;2023-06-24T11:39:03;7.07;;;5.35;;
13753;SDS011;6948;51.216;6.778;2023-06-24T11:41:29;6.78;;;4.70;;
13753;SDS011;6948;51.216;6.778;2023-06-24T11:43:57;5.97;;;4.75;;
13753;SDS011;6948;51.216;6.778;2023-06-24T11:46:25;4.88;;;3.75;;
13753;SDS011;6948;51.216;6.778;2023-06-24T11:48:52;5.15;;;3.72;;
13753;SDS011;6948;51.216;6.778;2023-06-24T11:51:18;6.18;;;3.50;;
13753;SDS011;6948;51.216;6.778;2023-06-24T11:53:44;6.63;;;3.80;;
13753;SDS011;6948;51.216;6.778;2023-06-24T11:56:11;5.20;;;3.80;;
13753;SDS011;6948;51.216;6.778;2023-06-24T11:58:37;5.53;;;3.70;;
13753;SDS011;6948;51.216;6.778;2023-06-24T12:01:03;7.75;;;4.05;;
13753;SDS011;6948;51.216;6.778;2023-06-24T12:03:33;6.85;;;3.97;;
13753;SDS011;6948;51.216;6.778;2023-06-24T12:05:59;5.72;;;4.00;;
13753;SDS011;6948;51.216;6.778;2023-06-24T12:08:25;4.35;;;3.83;;
13753;SDS011;6948;51.216;6.778;2023-06-24T12:10:51;8.52;;;4.53;;
13753;SDS011;6948;51.216;6.778;2023-06-24T12:13:18;6.32;;;4.03;;
13753;SDS011;6948;51.216;6.778;2023-06-24T12:15:44;7.13;;;4.65;;
13753;SDS011;6948;51.216;6.778;2023-06-24T12:18:11;3.78;;;3.38;;
13753;SDS011;6948;51.216;6.778;2023-06-24T12:20:39;3.40;;;3.10;;
13753;SDS011;6948;51.216;6.778;2023-06-24T12:23:05;5.32;;;3.25;;
13753;SDS011;6948;51.216;6.778;2023-06-24T12:25:31;3.97;;;3.55;;
13753;SDS011;6948;51.216;6.778;2023-06-24T12:27:57;3.22;;;2.90;;
13753;SDS011;6948;51.216;6.778;2023-06-24T12:30:24;4.60;;;3.22;;
13753;SDS011;6948;51.216;6.778;2023-06-24T12:32:51;3.95;;;3.58;;
13753;SDS011;6948;51.216;6.778;2023-06-24T12:35:17;4.72;;;3.60;;
13753;SDS011;6948;51.216;6.778;2023-06-24T12:37:43;3.90;;;2.92;;
13753;SDS011;6948;51.216;6.778;2023-06-24T12:40:10;3.63;;;2.85;;
13753;SDS011;6948;51.216;6.778;2023-06-24T12:42:36;4.47;;;3.42;;
13753;SDS011;6948;51.216;6.778;2023-06-24T12:45:02;4.70;;;3.22;;
13753;SDS011;6948;51.216;6.778;2023-06-24T12:47:28;4.15;;;2.90;;
13753;SDS011;6948;51.216;6.778;2023-06-24T12:49:54;3.92;;;3.03;;
13753;SDS011;6948;51.216;6.778;2023-06-24T12:52:20;3.60;;;2.72;;
13753;SDS011;6948;51.216;6.778;2023-06-24T12:54:46;3.88;;;2.72;;
13753;SDS011;6948;51.216;6.778;2023-06-24T12:57:13;3.75;;;2.95;;
13753;SDS011;6948;51.216;6.778;2023-06-24T12:59:39;3.28;;;2.97;;
13753;SDS011;6948;51.216;6.778;2023-06-24T13:02:06;4.35;;;2.70;;
13753;SDS011;6948;51.216;6.778;2023-06-24T13:04:32;3.58;;;2.45;;
13753;SDS011;6948;51.216;6.778;2023-06-24T13:06:58;3.42;;;2.40;;
13753;SDS011;6948;51.216;6.778;2023-06-24T13:09:24;3.38;;;2.72;;
13753;SDS011;6948;51.216;6.778;2023-06-24T13:11:50;3.05;;;2.72;;
13753;SDS011;6948;51.216;6.778;2023-06-24T13:14:16;2.60;;;2.40;;
13753;SDS011;6948;51.216;6.778;2023-06-24T13:16:42;3.53;;;2.10;;
13753;SDS011;6948;51.216;6.778;2023-06-24T13:19:08;3.00;;;2.40;;
13753;SDS011;6948;51.216;6.778;2023-06-24T13:21:34;3.90;;;2.20;;
13753;SDS011;6948;51.216;6.778;2023-06-24T13:24:00;2.60;;;2.40;;
13753;SDS011;6948;51.216;6.778;2023-06-24T13:26:26;2.22;;;2.03;;
13753;SDS011;6948;51.216;6.778;2023-06-24T13:28:53;2.83;;;2.47;;
13753;SDS011;6948;51.216;6.778;2023-06-24T13:31:19;3.05;;;2.30;;
13753;SDS011;6948;51.216;6.778;2023-06-24T13:33:45;4.00;;;2.17;;
13753;SDS011;6948;51.216;6.778;2023-06-24T13:36:13;2.70;;;2.50;;
13753;SDS011;6948;51.216;6.778;2023-06-24T13:38:51;2.70;;;2.40;;
13753;SDS011;6948;51.216;6.778;2023-06-24T13:41:17;2.45;;;2.22;;
13753;SDS011;6948;51.216;6.778;2023-06-24T13:43:43;2.45;;;2.25;;
13753;SDS011;6948;51.216;6.778;2023-06-24T13:46:09;4.20;;;2.30;;
13753;SDS011;6948;51.216;6.778;2023-06-24T13:48:35;2.75;;;2.30;;
13753;SDS011;6948;51.216;6.778;2023-06-24T13:51:01;2.92;;;2.05;;
13753;SDS011;6948;51.216;6.778;2023-06-24T13:53:27;3.22;;;2.20;;
13753;SDS011;6948;51.216;6.778;2023-06-24T13:55:53;2.47;;;2.20;;
13753;SDS011;6948;51.216;6.778;2023-06-24T13:58:19;3.17;;;2.10;;
13753;SDS011;6948;51.216;6.778;2023-06-24T14:00:45;2.30;;;2.00;;
13753;SDS011;6948;51.216;6.778;2023-06-24T14:03:11;3.03;;;2.30;;
13753;SDS011;6948;51.216;6.778;2023-06-24T14:05:37;2.42;;;2.20;;
13753;SDS011;6948;51.216;6.778;2023-06-24T14:08:03;2.80;;;2.40;;
13753;SDS011;6948;51.216;6.778;2023-06-24T14:10:30;2.88;;;2.55;;
13753;SDS011;6948;51.216;6.778;2023-06-24T14:12:56;2.50;;;2.30;;
13753;SDS011;6948;51.216;6.778;2023-06-24T14:15:22;3.20;;;2.50;;
13753;SDS011;6948;51.216;6.778;2023-06-24T14:17:48;3.22;;;2.15;;
13753;SDS011;6948;51.216;6.778;2023-06-24T14:20:14;2.70;;;2.13;;
13753;SDS011;6948;51.216;6.778;2023-06-24T14:22:40;2.60;;;2.40;;
13753;SDS011;6948;51.216;6.778;2023-06-24T14:25:06;4.90;;;3.08;;
13753;SDS011;6948;51.216;6.778;2023-06-24T14:27:32;2.92;;;2.50;;
13753;SDS011;6948;51.216;6.778;2023-06-24T14:29:58;5.25;;;2.70;;
13753;SDS011;6948;51.216;6.778;2023-06-24T14:32:24;3.33;;;2.33;;
13753;SDS011;6948;51.216;6.778;2023-06-24T14:34:50;2.50;;;2.30;;
13753;SDS011;6948;51.216;6.778;2023-06-24T14:37:16;3.33;;;2.67;;
13753;SDS011;6948;51.216;6.778;2023-06-24T14:39:42;4.13;;;2.33;;
13753;SDS011;6948;51.216;6.778;2023-06-24T14:42:08;2.60;;;2.40;;
13753;SDS011;6948;51.216;6.778;2023-06-24T14:44:34;2.47;;;2.28;;
13753;SDS011;6948;51.216;6.778;2023-06-24T14:47:00;2.60;;;2.30;;
13753;SDS011;6948;51.216;6.778;2023-06-24T14:49:26;3.08;;;2.42;;
13753;SDS011;6948;51.216;6.778;2023-06-24T14:51:52;3.40;;;2.60;;
13753;SDS011;6948;51.216;6.778;2023-06-24T14:54:18;6.25;;;2.70;;
13753;SDS011;6948;51.216;6.778;2023-06-24T14:56:44;2.80;;;2.60;;
13753;SDS011;6948;51.216;6.778;2023-06-24T14:59:12;3.28;;;2.47;;
13753;SDS011;6948;51.216;6.778;2023-06-24T15:01:38;3.72;;;2.47;;
13753;SDS011;6948;51.216;6.778;2023-06-24T15:04:04;2.85;;;2.45;;
13753;SDS011;6948;51.216;6.778;2023-06-24T15:06:30;5.78;;;2.50;;
13753;SDS011;6948;51.216;6.778;2023-06-24T15:08:56;2.92;;;2.20;;